Flight Track Log - Related Links

Times and Time Zones

All times are in EDT time to prevent confusion due to time zone crossing. See the CHQ6101 flight status page for this flight to view local times or setup timezone preferences in your user account.

Time Position Orientation Groundspeed Altitude Reporting Facility
EDT Latitude Longitude Course Direction KTS MPH feet Rate Location/Type
Fri 02:14:14 PM 40.7333 -73.8167 21° North 196 226 2,100  Level New York TRACON
Fri 02:15:47 PM 40.7947 -73.7500 39° Northeast 224 258 5,200 2,286 Climbing Boston Center
Fri 02:16:20 PM 40.8500 -73.7167 25° Northeast 264 304 6,900 2,645 Climbing New York TRACON
Fri 02:17:20 PM 40.9167 -73.6667 30° Northeast 275 316 9,300 2,066 Climbing New York TRACON
Fri 02:18:00 PM 41.2451 -73.4856 33° Northeast  Level FlightAware Approximate
Fri 02:18:51 PM 41.0203 -73.5994 26° Northeast 299 344 12,100  Level Boston Center
Fri 02:19:00 PM 40.8527 -73.7986 21° North  Level FlightAware Approximate
Fri 02:19:53 PM 41.1047 -73.5861 North 308 354 14,000  Level Boston Center
Fri 02:20:54 PM 41.1947 -73.5275 26° Northeast 341 392 15,100 1,073 Climbing Boston Center
Fri 02:21:56 PM 41.2853 -73.4597 29° Northeast 369 425 16,200 1,268 Climbing Boston Center
Fri 02:22:57 PM 41.3858 -73.3847 29° Northeast 382 440 17,700 1,220 Climbing Boston Center
Fri 02:23:59 PM 41.4786 -73.3133 30° Northeast 389 448 18,700 1,122 Climbing Boston Center
Fri 02:25:00 PM 41.5472 -73.2239 44° Northeast 398 458 20,000 1,561 Climbing Boston Center
Fri 02:26:02 PM 41.6558 -73.1217 35° Northeast 400 460 21,900 1,610 Climbing Boston Center
Fri 02:27:03 PM 41.7606 -73.1297 357° North 386 444 23,300 1,415 Climbing Boston Center
Fri 02:28:05 PM 41.8656 -73.1472 353° North 382 440 24,800 1,452 Climbing Boston Center
Fri 02:29:07 PM 41.9694 -73.1653 353° North 382 440 26,300 714 Climbing Boston Center
Fri 02:31:10 PM 42.1903 -73.1942 354° North 403 464 27,000 228 Climbing Boston Center
Fri 02:32:11 PM 42.3003 -73.1014 32° Northeast 471 542 27,000  Level Boston Center
Fri 02:33:13 PM 42.3894 -72.9606 49° Northeast 491 565 27,000  Level Boston Center
Fri 02:34:14 PM 42.4997 -72.7861 49° Northeast 506 582 27,000  Level Boston Center
Fri 02:35:16 PM 42.5917 -72.6394 50° Northeast 506 582 27,000  Level Boston Center
Fri 02:36:17 PM 42.6742 -72.5039 50° Northeast 510 587 27,000  Level Boston Center
Fri 02:37:19 PM 42.7678 -72.3533 50° Northeast 514 592 27,000  Level Boston Center
Fri 02:38:21 PM 42.8603 -72.2000 51° Northeast 523 602 27,000  Level Boston Center
Fri 02:39:22 PM 42.9700 -72.0169 51° Northeast 524 603 27,000  Level Boston Center
Fri 02:40:24 PM 43.0617 -71.8653 50° Northeast 521 600 27,000  Level Boston Center
Fri 02:41:25 PM 43.1533 -71.7136 50° Northeast 521 600 27,000  Level Boston Center
Fri 02:42:27 PM 43.2450 -71.5619 50° Northeast 520 598 27,000  Level Boston Center
Fri 02:43:29 PM 43.3372 -71.4106 50° Northeast 519 597 27,000  Level Boston Center
Fri 02:44:30 PM 43.4275 -71.2575 51° Northeast 519 597 27,000  Level Boston Center
Fri 02:45:32 PM 43.5175 -71.1044 51° Northeast 518 596 27,000  Level Boston Center
Fri 02:46:33 PM 43.6253 -70.9208 51° Northeast 516 594 27,000  Level Boston Center
Fri 02:47:35 PM 43.7125 -70.7711 51° Northeast 515 593 27,000  Level Boston Center
Fri 02:48:36 PM 43.8019 -70.6158 51° Northeast 515 593 27,000 -341 Level Boston Center
Fri 02:49:38 PM 43.8919 -70.4611 51° Northeast 515 593 26,300 -1,065 Descending Boston Center
Fri 02:50:40 PM 43.9811 -70.3100 51° Northeast 509 586 24,800 -1,122 Descending Boston Center
Fri 02:51:41 PM 44.0664 -70.1586 52° Northeast 499 574 24,000 -1,073 Descending Boston Center
Fri 02:52:43 PM 44.1511 -70.0114 51° Northeast 474 545 22,600 -1,790 Descending Boston Center
Fri 02:53:45 PM 44.2419 -69.8506 52° Northeast 455 524 20,300 -2,098 Descending Boston Center
Fri 02:54:46 PM 44.3161 -69.7211 51° Northeast 441 507 18,300 -1,756 Descending Boston Center
Fri 02:55:48 PM 44.3919 -69.5978 49° Northeast 412 474 16,700 -1,742 Descending Boston Center
Fri 02:56:50 PM 44.4658 -69.5008 43° Northeast 370 426 14,700 -1,902 Descending Boston Center
Fri 02:57:51 PM 44.5333 -69.4119 43° Northeast 340 391 12,800 -1,610 Descending Boston Center
Fri 02:58:53 PM 44.5978 -69.3267 43° Northeast 326 375 11,400 -1,694 Descending Boston Center
Fri 02:59:55 PM 44.6578 -69.2467 43° Northeast 304 350 9,300 -2,146 Descending Boston Center
Fri 03:00:56 PM 44.7281 -69.1528 43° Northeast 295 339 7,000 -2,195 Descending Boston Center
Fri 03:01:58 PM 44.7842 -69.0786 43° Northeast 284 327 4,800 -2,081 Descending Boston Center
Fri 03:03:00 PM 44.8361 -69.0092 43° Northeast 266 306 2,700 -1,171 Descending Boston Center
Fri 03:04:01 PM 44.8669 -68.9414 57° Northeast 223 257 2,400 -780 Descending Boston Center
Fri 03:05:03 PM 44.8475 -68.8856 116° Southeast 182 209 1,100 -1,024 Descending Boston Center
Fri 03:06:04 PM 44.8200 -68.8472 135° Southeast 156 180 300 -787 Descending Boston Center

Login

Don't have an account? Register now (free) for customized features, flight alerts, and more!